New Preston, Connecticut
Current Conditions -  °F | °C
As of 5:28 PM on Thursday 23 Oct 2014 (Local Time) from KOXC Reporting Station
Overcast Overcast  
Wind Chill: 43°   Ceiling: 1500
Heat Index: 48°   Visibility: 10mi
Dew Point: 43°   Wind: 14mph
Humidity: 82%   Direction: 360°N
Pressure: 29.69"   Gusts: 22mph
Location:  41.6879°N, 73.3378°W
Report Text: KOXC 232128Z 36012G19KT 10SM BKN015 OVC024 09/06 A2969
Loading
Personal Weather Stations






























Interactive Weather Map New forecast layout! Learn more

10-Day Weather Forecast

Advertisements
Track Severe Weather on mobile